Ana Sayfa
METAR-TAF:

METAR-TAF

Havaalanları :

Kangerlussuaq Havalimanı

Kangerlussuaq, Grönland

Enlem: 67-01N, Boylam: 050-42W, yükseklik: 50 m

Güncel hava durumu gözlemi

Rapor saat 18:50 UTC de 1 saat ve 7 dakika önce yapıldı.
Rüzgar kuzeydoğudan 10 kt
Sıcaklık -25°C
Nem 69%
Basınç 994 hPa
Görüş mesafesi 10 km veya daha fazla

METAR: BGSF 231850Z AUTO 04010KT 9999NDV NCD M25/M29 Q0994

Saat: 16:57 (19:57 UTC)

Tahmin

Rapor saat 10:54 UTC de 9 saat ve 3 dakika önce yapıldı.
Ayın 23'si saat 12 UTC'den ayın 23'si saat 22 UTC'ye kadar geçerli Tahmin
Rüzgar doğu/kuzeydoğudan 6 kt
Görüş mesafesi 10 km veya daha fazla
12000 ft yükseklikte parçalı bulutlu
Geçici
ayın 23'si saat 15 UTC'den ayın 23'si saat 22 UTC'ye kadar
7000 ft yükseklikte parçalı çok bulutlu

TAF: BGSF 231054Z 2312/2322 06006KT 9999 SCT120 TEMPO 2315/2322 BKN070

4.000'den fazla havaalanı için hava durumu gözlemleri ve tahminleri (METAR ve TAF raporları).

Kullanılabilir istasyonlar harita üzerinde sarı ve kırmızı noktalarla gösterilir.

İstasyonun adını görmek için fareyi noktanın üzerinde gezdirin.

Sonrasında hava gözlem ve tahminlerini görmek için tıklayın.

Haritayı değiştirmek için: yaklaştırmak için siyah artı işaretli yeşil düğmeye ve uzaklaştırmak için de eksi işaretli düğmeye hızla tıklayın; bitişik haritalar için yeşil okları kullanın.


METAR-TAF: